createdAt,value
2019-02-26T00:00:20.056Z,79.09
2019-02-26T00:01:21.082Z,79.16
2019-02-26T00:02:21.335Z,79.05
2019-02-26T00:03:19.871Z,78.95
2019-02-26T00:04:20.818Z,79.16
2019-02-26T00:05:21.428Z,79.05
2019-02-26T00:06:20.566Z,78.95
2019-02-26T00:07:22.366Z,78.53
2019-02-26T00:08:21.424Z,79.09
2019-02-26T00:09:22.361Z,78.78
2019-02-26T00:10:19.749Z,79.91
2019-02-26T00:11:18.579Z,80.33
2019-02-26T00:12:21.932Z,80.22
2019-02-26T00:13:18.572Z,80.36
2019-02-26T00:14:20.386Z,80.16
2019-02-26T00:15:18.536Z,81.23
2019-02-26T00:16:20.601Z,80.71
2019-02-26T00:17:19.588Z,80.40
2019-02-26T00:18:19.562Z,81.16
2019-02-26T00:19:18.492Z,81.16
2019-02-26T00:20:18.478Z,82.31
2019-02-26T00:21:20.424Z,82.82
2019-02-26T00:22:18.456Z,83.24
2019-02-26T00:23:19.804Z,83.14
2019-02-26T00:24:18.436Z,84.07
2019-02-26T00:25:20.518Z,83.76
2019-02-26T00:26:20.213Z,83.97
2019-02-26T00:27:18.410Z,82.72
2019-02-26T00:28:19.753Z,83.17
2019-02-26T00:29:18.388Z,83.17
2019-02-26T00:30:18.663Z,83.17
2019-02-26T00:31:19.206Z,84.00
2019-02-26T00:32:18.527Z,84.31
2019-02-26T00:33:19.544Z,84.73
2019-02-26T00:34:18.692Z,84.69
2019-02-26T00:35:20.648Z,84.17
2019-02-26T00:36:18.308Z,84.48
2019-02-26T00:37:20.004Z,83.86
2019-02-26T00:38:19.910Z,83.14
2019-02-26T00:39:18.304Z,83.45
2019-02-26T00:40:20.286Z,84.07
2019-02-26T00:41:20.284Z,83.03
2019-02-26T00:42:21.484Z,83.48
2019-02-26T00:43:20.929Z,84.11
2019-02-26T00:44:20.939Z,84.11
2019-02-26T00:45:22.206Z,84.11
2019-02-26T00:46:18.198Z,84.11
2019-02-26T00:47:18.181Z,84.42
2019-02-26T00:48:18.188Z,84.42
2019-02-26T00:49:19.098Z,84.46
2019-02-26T00:50:18.156Z,84.73
2019-02-26T00:51:20.449Z,84.94
2019-02-26T00:52:18.152Z,85.25
2019-02-26T00:53:21.175Z,85.56
2019-02-26T00:54:20.197Z,85.14
2019-02-26T00:55:18.106Z,85.46
2019-02-26T00:56:18.083Z,85.25
2019-02-26T00:57:18.072Z,85.35
2019-02-26T00:58:18.078Z,85.46
2019-02-26T00:59:18.055Z,85.14
2019-02-26T01:00:18.045Z,85.25
2019-02-26T01:01:19.928Z,84.83
2019-02-26T01:02:18.023Z,85.66
2019-02-26T01:03:18.022Z,86.29
2019-02-26T01:04:18.008Z,86.70
2019-02-26T01:05:17.995Z,86.45
2019-02-26T01:07:28.198Z,84.30
2019-02-26T01:08:28.271Z,84.30
2019-02-26T01:09:29.446Z,83.99
2019-02-26T01:10:28.149Z,83.85
2019-02-26T01:11:30.108Z,83.44
2019-02-26T01:12:28.117Z,83.33
2019-02-26T01:13:30.003Z,82.92
2019-02-26T01:14:28.106Z,82.81
2019-02-26T01:15:28.097Z,82.09
2019-02-26T01:16:28.082Z,82.09
2019-02-26T01:17:28.063Z,82.19
2019-02-26T01:18:28.989Z,81.99
2019-02-26T01:19:28.423Z,82.29
2019-02-26T01:20:30.242Z,82.54
2019-02-26T01:21:29.094Z,82.86
2019-02-26T01:22:28.010Z,82.75
2019-02-26T01:23:28.951Z,82.34
2019-02-26T01:24:30.033Z,83.89
2019-02-26T01:25:27.975Z,83.58
2019-02-26T01:26:27.987Z,83.41
2019-02-26T01:27:27.958Z,83.10
2019-02-26T01:28:29.239Z,84.23
2019-02-26T01:29:29.989Z,83.72
2019-02-26T01:30:29.411Z,84.03
2019-02-26T01:31:29.303Z,83.16
2019-02-26T01:32:27.911Z,83.93
2019-02-26T01:33:30.227Z,83.83
2019-02-26T01:34:27.882Z,84.03
2019-02-26T01:35:28.844Z,83.51
2019-02-26T01:36:27.860Z,83.51
2019-02-26T01:37:29.882Z,83.41
2019-02-26T01:38:27.834Z,83.10
2019-02-26T01:39:27.847Z,82.79
2019-02-26T01:40:27.825Z,82.89
2019-02-26T01:41:27.843Z,82.48
2019-02-26T01:42:29.856Z,82.37
2019-02-26T01:43:27.792Z,82.37
2019-02-26T01:44:30.170Z,82.17
2019-02-26T01:45:29.847Z,82.27
2019-02-26T01:46:27.751Z,82.06
2019-02-26T01:47:28.534Z,82.10
2019-02-26T01:48:27.739Z,82.17
2019-02-26T01:49:28.478Z,82.27
2019-02-26T01:50:28.383Z,82.17
2019-02-26T01:51:28.646Z,82.48
2019-02-26T01:52:27.685Z,81.37
2019-02-26T01:53:27.682Z,81.58
2019-02-26T01:54:28.303Z,81.02
2019-02-26T01:55:27.850Z,81.23
2019-02-26T01:56:27.656Z,81.48
2019-02-26T01:57:27.871Z,81.75
2019-02-26T01:58:27.621Z,81.23
2019-02-26T01:59:27.623Z,81.48
2019-02-26T02:00:27.604Z,81.37
2019-02-26T02:01:27.586Z,81.89
2019-02-26T02:02:28.279Z,81.99
2019-02-26T02:03:28.397Z,81.34
2019-02-26T02:04:27.584Z,81.85
2019-02-26T02:05:29.474Z,81.16
2019-02-26T02:06:27.538Z,80.61
2019-02-26T02:07:28.720Z,81.34
2019-02-26T02:08:27.522Z,81.48
2019-02-26T02:09:27.525Z,81.89
2019-02-26T02:10:27.502Z,82.20
2019-02-26T02:11:29.396Z,82.41
2019-02-26T02:12:29.536Z,82.10
2019-02-26T02:13:28.737Z,82.20
2019-02-26T02:14:27.487Z,82.20
2019-02-26T02:15:27.446Z,81.99
2019-02-26T02:16:29.620Z,82.86
2019-02-26T02:17:28.847Z,83.17
2019-02-26T02:18:29.386Z,83.17
2019-02-26T02:19:29.618Z,83.90
2019-02-26T02:20:27.391Z,83.11
2019-02-26T02:21:30.454Z,83.63
2019-02-26T02:22:29.486Z,84.05
2019-02-26T02:23:28.096Z,84.05
2019-02-26T02:24:27.364Z,84.81
2019-02-26T02:25:31.091Z,84.81
2019-02-26T02:26:27.327Z,84.98
2019-02-26T02:27:30.197Z,85.74
2019-02-26T02:28:28.595Z,85.22
2019-02-26T02:29:28.608Z,85.53
2019-02-26T02:30:31.146Z,85.74
2019-02-26T02:31:31.050Z,85.12
2019-02-26T02:32:29.561Z,85.22
2019-02-26T02:33:29.516Z,85.99
2019-02-26T02:34:29.563Z,86.36
2019-02-26T02:35:27.236Z,86.47
2019-02-26T02:36:27.211Z,85.95
2019-02-26T02:37:29.438Z,86.33
2019-02-26T02:38:27.195Z,85.60
2019-02-26T02:39:29.159Z,84.56
2019-02-26T02:40:27.183Z,84.77
2019-02-26T02:41:27.189Z,84.25
2019-02-26T02:42:27.151Z,84.67
2019-02-26T02:43:27.134Z,84.21
2019-02-26T02:44:27.167Z,84.05
2019-02-26T02:45:27.120Z,84.05
2019-02-26T02:46:27.112Z,84.56
2019-02-26T02:47:29.916Z,84.36
2019-02-26T02:48:27.113Z,84.77
2019-02-26T02:49:27.107Z,84.83
2019-02-26T02:50:27.063Z,84.15
2019-02-26T02:51:28.163Z,84.56
2019-02-26T02:52:29.688Z,84.98
2019-02-26T02:53:29.685Z,84.56
2019-02-26T02:54:27.040Z,85.19
2019-02-26T02:55:27.023Z,84.98
2019-02-26T02:56:27.007Z,84.67
2019-02-26T02:57:29.449Z,84.67
2019-02-26T02:58:26.976Z,85.29
2019-02-26T02:59:28.322Z,85.81
2019-02-26T03:00:28.645Z,85.39
2019-02-26T03:01:28.670Z,86.22
2019-02-26T03:02:26.944Z,86.33
2019-02-26T03:03:26.930Z,85.08
2019-02-26T03:04:29.076Z,84.98
2019-02-26T03:05:26.932Z,85.19
2019-02-26T03:06:28.088Z,84.77
2019-02-26T03:08:36.086Z,85.08
2019-02-26T03:09:38.562Z,84.81
2019-02-26T03:10:39.519Z,85.33
2019-02-26T03:11:41.123Z,85.43
2019-02-26T03:12:37.026Z,86.09
2019-02-26T03:13:37.022Z,85.05
2019-02-26T03:14:39.180Z,85.68
2019-02-26T03:15:36.999Z,86.51
2019-02-26T03:16:39.046Z,86.19
2019-02-26T03:17:36.965Z,86.24
2019-02-26T03:18:36.970Z,87.07
2019-02-26T03:19:38.465Z,87.21
2019-02-26T03:20:40.136Z,87.21
2019-02-26T03:21:36.954Z,87.94
2019-02-26T03:22:41.532Z,89.15
2019-02-26T03:23:40.252Z,88.42
2019-02-26T03:24:36.907Z,88.59
2019-02-26T03:25:36.913Z,87.90
2019-02-26T03:26:36.884Z,88.31
2019-02-26T03:27:39.348Z,88.04
2019-02-26T03:28:37.553Z,87.69
2019-02-26T03:29:36.864Z,87.90
2019-02-26T03:30:40.178Z,88.21
2019-02-26T03:31:40.594Z,88.46
2019-02-26T03:32:41.389Z,88.15
2019-02-26T03:33:36.805Z,88.25
2019-02-26T03:34:36.801Z,88.04
2019-02-26T03:35:36.810Z,88.50
2019-02-26T03:36:38.296Z,88.40
2019-02-26T03:37:36.765Z,89.43
2019-02-26T03:38:36.746Z,89.64
2019-02-26T03:39:36.732Z,89.43
2019-02-26T03:40:36.745Z,89.54
2019-02-26T03:41:36.720Z,89.48
2019-02-26T03:42:40.438Z,89.58
2019-02-26T03:43:39.237Z,90.31
2019-02-26T03:44:36.682Z,90.31
2019-02-26T03:45:36.695Z,90.20
2019-02-26T03:46:36.673Z,90.93
2019-02-26T03:47:40.027Z,91.10
2019-02-26T03:48:36.641Z,91.14
2019-02-26T03:49:36.689Z,90.10
2019-02-26T03:50:36.639Z,89.89
2019-02-26T03:51:39.132Z,90.20
2019-02-26T03:52:36.594Z,90.45
2019-02-26T03:53:39.036Z,90.66
2019-02-26T03:54:37.859Z,90.35
2019-02-26T03:55:38.796Z,90.87
2019-02-26T03:56:36.555Z,91.50
2019-02-26T03:57:40.974Z,91.02
2019-02-26T03:58:36.536Z,90.70
2019-02-26T03:59:36.511Z,91.02
2019-02-26T04:00:38.632Z,91.64
2019-02-26T04:01:36.503Z,91.96
2019-02-26T04:02:37.524Z,91.43
2019-02-26T04:03:37.610Z,91.75
2019-02-26T04:04:36.460Z,91.64
2019-02-26T04:05:36.466Z,92.68
2019-02-26T04:06:38.406Z,92.68
2019-02-26T04:07:36.435Z,92.27
2019-02-26T04:08:36.431Z,92.22
2019-02-26T04:09:39.144Z,93.27
2019-02-26T04:10:36.398Z,93.05
2019-02-26T04:11:36.417Z,92.29
2019-02-26T04:12:41.858Z,92.39
2019-02-26T04:13:36.377Z,92.39
2019-02-26T04:14:36.356Z,92.22
2019-02-26T04:15:38.259Z,92.54
2019-02-26T04:16:37.975Z,92.54
2019-02-26T04:17:37.013Z,92.33
2019-02-26T04:18:36.311Z,92.22
2019-02-26T04:19:36.294Z,92.47
2019-02-26T04:20:36.292Z,92.43
2019-02-26T04:21:36.309Z,92.33
2019-02-26T04:22:39.162Z,92.43
2019-02-26T04:23:38.818Z,92.64
2019-02-26T04:24:38.100Z,92.33
2019-02-26T04:25:36.561Z,92.02
2019-02-26T04:26:36.244Z,92.22
2019-02-26T04:27:38.733Z,92.12
2019-02-26T04:28:37.111Z,92.27
2019-02-26T04:29:37.948Z,92.12
2019-02-26T04:30:38.986Z,91.60
2019-02-26T04:31:36.197Z,92.33
2019-02-26T04:32:38.378Z,91.91
2019-02-26T04:33:38.454Z,92.64
2019-02-26T04:34:36.137Z,91.39
2019-02-26T04:35:36.135Z,91.75
2019-02-26T04:36:37.827Z,92.68
2019-02-26T04:37:38.476Z,92.16
2019-02-26T04:38:36.825Z,92.06
2019-02-26T04:39:36.980Z,92.16
2019-02-26T04:40:38.224Z,92.06
2019-02-26T04:41:36.094Z,92.27
2019-02-26T04:42:38.382Z,92.33
2019-02-26T04:43:38.341Z,91.81
2019-02-26T04:44:36.033Z,92.22
2019-02-26T04:45:36.058Z,92.02
2019-02-26T04:46:36.728Z,91.71
2019-02-26T04:47:36.000Z,92.16
2019-02-26T04:48:36.003Z,92.43
2019-02-26T04:49:38.994Z,92.33
2019-02-26T04:50:38.741Z,92.12
2019-02-26T04:51:36.328Z,92.22
2019-02-26T04:52:40.049Z,91.28
2019-02-26T04:53:36.522Z,91.28
2019-02-26T04:54:39.169Z,90.56
2019-02-26T04:55:38.208Z,91.18
2019-02-26T04:56:39.080Z,90.91
2019-02-26T04:57:39.406Z,91.53
2019-02-26T04:58:37.242Z,91.22
2019-02-26T04:59:38.175Z,91.02
2019-02-26T05:00:38.348Z,91.22
2019-02-26T05:01:35.848Z,91.53
2019-02-26T05:02:35.861Z,91.33
2019-02-26T05:03:35.836Z,91.12
2019-02-26T05:04:36.805Z,91.02
2019-02-26T05:05:37.106Z,91.33
2019-02-26T05:06:35.798Z,91.33
2019-02-26T05:07:38.186Z,91.22
2019-02-26T05:09:44.985Z,91.37
2019-02-26T05:10:47.002Z,92.62
2019-02-26T05:11:45.954Z,92.62
2019-02-26T05:12:45.959Z,92.00
2019-02-26T05:13:46.112Z,92.31
2019-02-26T05:14:45.916Z,92.35
2019-02-26T05:15:45.934Z,92.25
2019-02-26T05:16:45.909Z,92.56
2019-02-26T05:17:45.907Z,91.83
2019-02-26T05:18:47.032Z,92.56
2019-02-26T05:19:48.418Z,92.25
2019-02-26T05:20:48.368Z,92.87
2019-02-26T05:21:45.847Z,92.77
2019-02-26T05:22:45.865Z,92.97
2019-02-26T05:23:46.467Z,93.29
2019-02-26T05:24:47.487Z,93.44
2019-02-26T05:25:45.806Z,92.40
2019-02-26T05:26:45.802Z,92.40
2019-02-26T05:27:48.122Z,92.91
2019-02-26T05:28:46.909Z,93.54
2019-02-26T05:29:48.243Z,93.85
2019-02-26T05:30:48.682Z,93.69
2019-02-26T05:31:45.746Z,93.65
2019-02-26T05:32:45.749Z,93.59
2019-02-26T05:33:46.816Z,93.59
2019-02-26T05:34:48.149Z,93.59
2019-02-26T05:35:46.861Z,93.90
2019-02-26T05:36:46.359Z,93.90
2019-02-26T05:37:45.694Z,94.84
2019-02-26T05:38:45.684Z,94.94
2019-02-26T05:39:46.883Z,94.69
2019-02-26T05:40:47.592Z,95.04
2019-02-26T05:41:45.639Z,94.94
2019-02-26T05:42:45.651Z,95.04
2019-02-26T05:43:49.430Z,94.73
2019-02-26T05:44:45.597Z,94.94
2019-02-26T05:45:45.598Z,94.10
2019-02-26T05:46:47.573Z,93.90
2019-02-26T05:47:48.089Z,94.46
2019-02-26T05:48:46.206Z,94.25
2019-02-26T05:49:45.957Z,95.09
2019-02-26T05:50:45.533Z,95.50
2019-02-26T05:51:45.537Z,94.78
2019-02-26T05:52:49.758Z,94.82
2019-02-26T05:53:45.515Z,95.34
2019-02-26T05:54:45.495Z,95.65
2019-02-26T05:55:48.729Z,95.44
2019-02-26T05:56:46.905Z,95.40
2019-02-26T05:57:45.479Z,95.92
2019-02-26T05:58:47.039Z,95.92
2019-02-26T05:59:45.449Z,95.72
2019-02-26T06:00:45.440Z,95.98
2019-02-26T06:01:46.551Z,95.40
2019-02-26T06:02:47.939Z,95.23
2019-02-26T06:03:46.748Z,95.50
2019-02-26T06:04:46.700Z,95.23
2019-02-26T06:05:48.425Z,95.23
2019-02-26T06:06:45.378Z,95.61
2019-02-26T06:07:45.371Z,95.97
2019-02-26T06:08:45.356Z,95.55
2019-02-26T06:09:48.023Z,95.86
2019-02-26T06:10:45.321Z,95.65
2019-02-26T06:11:49.418Z,96.49
2019-02-26T06:12:46.705Z,95.44
2019-02-26T06:13:45.300Z,96.07
2019-02-26T06:14:45.293Z,95.86
2019-02-26T06:15:45.275Z,96.17
2019-02-26T06:16:46.375Z,96.17
2019-02-26T06:17:46.344Z,95.90
2019-02-26T06:18:46.474Z,95.65
2019-02-26T06:19:45.268Z,96.43
2019-02-26T06:20:45.227Z,96.11
2019-02-26T06:21:47.437Z,95.97
2019-02-26T06:22:45.209Z,96.13
2019-02-26T06:23:45.189Z,96.50
2019-02-26T06:24:45.175Z,96.44
2019-02-26T06:25:45.168Z,96.50
2019-02-26T06:26:45.592Z,96.50
2019-02-26T06:27:45.166Z,96.71
2019-02-26T06:28:46.291Z,96.36
2019-02-26T06:29:45.132Z,96.98
2019-02-26T06:30:45.120Z,96.52
2019-02-26T06:31:46.884Z,96.26
2019-02-26T06:32:45.111Z,96.58
2019-02-26T06:33:47.205Z,96.26
2019-02-26T06:34:45.063Z,95.85
2019-02-26T06:35:45.058Z,95.95
2019-02-26T06:36:46.676Z,95.23
2019-02-26T06:37:45.072Z,95.12
2019-02-26T06:38:49.314Z,95.48
2019-02-26T06:39:45.031Z,95.48
2019-02-26T06:40:47.093Z,94.96
2019-02-26T06:41:46.763Z,95.37
2019-02-26T06:42:45.743Z,95.27
2019-02-26T06:43:47.688Z,94.81
2019-02-26T06:44:47.164Z,94.60
2019-02-26T06:45:45.855Z,94.56
2019-02-26T06:46:44.953Z,93.73
2019-02-26T06:47:45.695Z,94.24
2019-02-26T06:48:44.936Z,93.62
2019-02-26T06:49:45.780Z,93.66
2019-02-26T06:50:44.907Z,93.56
2019-02-26T06:51:45.742Z,93.77
2019-02-26T06:52:47.511Z,93.87
2019-02-26T06:53:49.018Z,93.52
2019-02-26T06:54:47.824Z,93.83
2019-02-26T06:55:44.870Z,93.20
2019-02-26T06:56:46.194Z,92.99
2019-02-26T06:57:46.969Z,93.41
2019-02-26T06:58:45.688Z,93.31
2019-02-26T06:59:44.801Z,93.20
2019-02-26T07:00:46.398Z,92.02
2019-02-26T07:01:44.789Z,92.02
2019-02-26T07:02:46.143Z,92.02
2019-02-26T07:03:44.797Z,92.22
2019-02-26T07:04:44.748Z,92.12
2019-02-26T07:05:46.560Z,92.12
2019-02-26T07:06:44.736Z,92.29
2019-02-26T07:07:44.716Z,92.49
2019-02-26T07:08:46.682Z,91.77
2019-02-26T07:10:53.891Z,91.20
2019-02-26T07:11:54.887Z,90.69
2019-02-26T07:12:54.869Z,90.79
2019-02-26T07:13:54.902Z,90.37
2019-02-26T07:14:55.590Z,90.37
2019-02-26T07:15:54.840Z,89.95
2019-02-26T07:16:56.527Z,90.37
2019-02-26T07:17:54.838Z,90.26
2019-02-26T07:18:54.830Z,90.37
2019-02-26T07:19:55.926Z,90.02
2019-02-26T07:20:57.749Z,90.23
2019-02-26T07:21:54.834Z,89.60
2019-02-26T07:22:54.760Z,90.64
2019-02-26T07:23:56.441Z,89.50
2019-02-26T07:24:54.747Z,88.87
2019-02-26T07:25:54.733Z,89.18
2019-02-26T07:26:54.717Z,89.29
2019-02-26T07:27:56.326Z,88.94
2019-02-26T07:28:54.779Z,88.21
2019-02-26T07:29:54.695Z,88.10
2019-02-26T07:30:54.673Z,87.65
2019-02-26T07:31:56.538Z,87.13
2019-02-26T07:32:54.675Z,86.88
2019-02-26T07:33:56.386Z,86.57
2019-02-26T07:34:54.675Z,85.95
2019-02-26T07:35:56.968Z,85.74
2019-02-26T07:36:54.621Z,84.70
2019-02-26T07:37:56.675Z,84.88
2019-02-26T07:38:56.493Z,84.25
2019-02-26T07:39:54.642Z,84.77
2019-02-26T07:40:56.462Z,84.56
2019-02-26T07:41:54.609Z,84.25
2019-02-26T07:42:54.585Z,84.11
2019-02-26T07:43:54.851Z,84.21
2019-02-26T07:44:54.526Z,84.00
2019-02-26T07:45:54.544Z,83.17
2019-02-26T07:46:55.137Z,84.07
2019-02-26T07:47:56.409Z,83.48
2019-02-26T07:48:57.171Z,83.86
2019-02-26T07:49:56.479Z,83.86
2019-02-26T07:50:54.475Z,83.24
2019-02-26T07:51:56.105Z,83.31
2019-02-26T07:52:56.887Z,82.93
2019-02-26T07:53:56.500Z,82.37
2019-02-26T07:54:54.455Z,82.48
2019-02-26T07:55:56.341Z,82.58
2019-02-26T07:56:55.145Z,82.89
2019-02-26T07:57:54.390Z,82.86
2019-02-26T07:58:57.015Z,82.13
2019-02-26T07:59:54.404Z,82.03
2019-02-26T08:00:54.396Z,82.34
2019-02-26T08:01:54.372Z,82.29
2019-02-26T08:02:57.024Z,82.40
2019-02-26T08:03:54.343Z,81.12
2019-02-26T08:04:54.305Z,80.91
2019-02-26T08:05:54.306Z,80.29
2019-02-26T08:06:56.796Z,80.29
2019-02-26T08:07:56.409Z,79.63
2019-02-26T08:08:54.290Z,79.12
2019-02-26T08:09:54.256Z,78.70
2019-02-26T08:10:54.268Z,78.88
2019-02-26T08:11:54.235Z,78.56
2019-02-26T08:12:56.090Z,78.56
2019-02-26T08:13:56.546Z,78.56
2019-02-26T08:14:54.204Z,78.98
2019-02-26T08:15:55.232Z,78.22
2019-02-26T08:16:56.285Z,77.87
2019-02-26T08:17:57.510Z,77.25
2019-02-26T08:18:56.555Z,76.84
2019-02-26T08:19:54.808Z,76.94
2019-02-26T08:20:55.429Z,76.90
2019-02-26T08:21:55.007Z,76.29
2019-02-26T08:22:56.299Z,75.98
2019-02-26T08:23:54.119Z,76.81
2019-02-26T08:24:55.526Z,76.18
2019-02-26T08:25:55.608Z,76.15
2019-02-26T08:26:54.394Z,75.63
2019-02-26T08:27:56.400Z,75.32
2019-02-26T08:28:56.878Z,75.43
2019-02-26T08:29:55.978Z,75.22
2019-02-26T08:30:55.246Z,74.60
2019-02-26T08:31:55.045Z,74.57
2019-02-26T08:32:56.130Z,74.98
2019-02-26T08:33:53.992Z,74.57
2019-02-26T08:34:54.165Z,74.26
2019-02-26T08:35:56.104Z,74.63
2019-02-26T08:36:53.979Z,74.02
2019-02-26T08:37:54.015Z,74.12
2019-02-26T08:38:56.516Z,74.22
2019-02-26T08:39:54.930Z,73.78
2019-02-26T08:40:53.929Z,74.08
2019-02-26T08:41:53.910Z,73.16
2019-02-26T08:42:53.899Z,73.57
2019-02-26T08:43:54.638Z,73.36
2019-02-26T08:44:55.862Z,74.60
2019-02-26T08:45:54.167Z,73.26
2019-02-26T08:46:53.895Z,73.33
2019-02-26T08:47:53.839Z,73.02
2019-02-26T08:48:53.824Z,72.92
2019-02-26T08:49:53.882Z,72.68
2019-02-26T08:50:55.714Z,72.06
2019-02-26T08:51:53.891Z,71.86
2019-02-26T08:52:56.203Z,72.37
2019-02-26T08:53:55.266Z,72.37
2019-02-26T08:54:54.121Z,71.44
2019-02-26T08:55:56.302Z,71.41
2019-02-26T08:56:55.730Z,71.62
2019-02-26T08:57:54.643Z,70.66
2019-02-26T08:58:53.725Z,70.56
2019-02-26T08:59:54.623Z,70.59
2019-02-26T09:00:53.683Z,70.76
2019-02-26T09:01:53.759Z,70.97
2019-02-26T09:02:56.355Z,71.37
2019-02-26T09:03:55.725Z,70.14
2019-02-26T09:04:53.647Z,70.45
2019-02-26T09:05:54.415Z,71.34
2019-02-26T09:06:54.699Z,70.11
2019-02-26T09:07:53.606Z,69.18
2019-02-26T09:08:55.079Z,69.77
2019-02-26T09:09:55.389Z,68.67
2019-02-26T09:12:03.835Z,68.61
2019-02-26T09:13:06.235Z,68.54
2019-02-26T09:14:06.696Z,67.99
2019-02-26T09:15:04.784Z,67.58
2019-02-26T09:16:06.150Z,67.68
2019-02-26T09:17:04.825Z,67.76
2019-02-26T09:18:04.758Z,67.96
2019-02-26T09:19:04.810Z,67.65
2019-02-26T09:20:09.201Z,66.80
2019-02-26T09:21:06.993Z,66.60
2019-02-26T09:22:04.784Z,66.90
2019-02-26T09:23:04.701Z,66.39
2019-02-26T09:24:07.508Z,66.36
2019-02-26T09:25:04.672Z,66.36
2019-02-26T09:26:06.975Z,66.16
2019-02-26T09:27:05.137Z,65.95
2019-02-26T09:28:04.775Z,65.81
2019-02-26T09:29:04.625Z,65.51
2019-02-26T09:30:05.930Z,65.51
2019-02-26T09:31:06.669Z,65.81
2019-02-26T09:32:06.712Z,65.30
2019-02-26T09:33:06.368Z,65.92
2019-02-26T09:34:04.604Z,65.68
2019-02-26T09:35:04.902Z,65.99
2019-02-26T09:36:04.541Z,64.32
2019-02-26T09:37:05.728Z,65.17
2019-02-26T09:38:04.517Z,64.62
2019-02-26T09:39:05.914Z,64.22
2019-02-26T09:40:04.902Z,64.01
2019-02-26T09:41:04.516Z,64.53
2019-02-26T09:42:06.359Z,64.53
2019-02-26T09:43:06.146Z,64.53
2019-02-26T09:44:06.813Z,64.42
2019-02-26T09:45:04.454Z,64.22
2019-02-26T09:46:08.578Z,64.09
2019-02-26T09:47:05.363Z,63.37
2019-02-26T09:48:04.510Z,63.44
2019-02-26T09:49:05.104Z,63.85
2019-02-26T09:50:04.387Z,63.10
2019-02-26T09:51:04.899Z,62.08
2019-02-26T09:52:06.312Z,62.29
2019-02-26T09:53:04.355Z,62.29
2019-02-26T09:54:04.342Z,61.95
2019-02-26T09:55:04.333Z,62.16
2019-02-26T09:56:04.329Z,60.90
2019-02-26T09:57:04.329Z,60.69
2019-02-26T09:58:04.294Z,60.08
2019-02-26T09:59:05.147Z,59.88
2019-02-26T10:00:04.284Z,59.47
2019-02-26T10:01:06.288Z,59.78
2019-02-26T10:02:06.086Z,59.57
2019-02-26T10:03:06.170Z,60.19
2019-02-26T10:04:05.416Z,60.05
2019-02-26T10:05:06.213Z,60.57
2019-02-26T10:06:04.208Z,59.64
2019-02-26T10:07:06.636Z,59.92
2019-02-26T10:08:05.367Z,59.44
2019-02-26T10:09:04.258Z,59.62
2019-02-26T10:10:06.441Z,59.21
2019-02-26T10:11:04.881Z,59.14
2019-02-26T10:12:05.583Z,59.00
2019-02-26T10:13:04.777Z,59.08
2019-02-26T10:14:05.417Z,58.87
2019-02-26T10:15:05.264Z,58.37
2019-02-26T10:16:05.982Z,58.26
2019-02-26T10:17:04.121Z,57.96
2019-02-26T10:18:06.631Z,58.16
2019-02-26T10:19:04.090Z,57.52
2019-02-26T10:20:05.068Z,57.90
2019-02-26T10:21:05.991Z,57.09
2019-02-26T10:22:07.113Z,56.96
2019-02-26T10:23:06.183Z,55.53
2019-02-26T10:24:04.630Z,55.87
2019-02-26T10:25:04.004Z,56.24
2019-02-26T10:26:05.756Z,56.52
2019-02-26T10:27:06.112Z,55.91
2019-02-26T10:28:08.668Z,55.00
2019-02-26T10:29:04.692Z,54.39
2019-02-26T10:30:05.876Z,55.00
2019-02-26T10:31:07.047Z,55.58
2019-02-26T10:32:04.092Z,54.97
2019-02-26T10:33:03.931Z,54.97
2019-02-26T10:34:07.833Z,54.85
2019-02-26T10:35:04.628Z,53.75
2019-02-26T10:36:05.417Z,54.13
2019-02-26T10:37:03.883Z,54.44
2019-02-26T10:38:07.651Z,54.13
2019-02-26T10:39:04.132Z,53.63
2019-02-26T10:40:03.875Z,54.21
2019-02-26T10:41:05.126Z,53.80
2019-02-26T10:42:04.561Z,53.29
2019-02-26T10:43:03.922Z,53.70
2019-02-26T10:44:04.039Z,53.27
2019-02-26T10:45:03.838Z,52.15
2019-02-26T10:46:03.853Z,52.15
2019-02-26T10:47:05.765Z,52.25
2019-02-26T10:48:03.823Z,52.76
2019-02-26T10:49:03.738Z,52.43
2019-02-26T10:50:03.886Z,52.12
2019-02-26T10:51:06.714Z,51.42
2019-02-26T10:52:03.688Z,51.31
2019-02-26T10:53:09.644Z,51.21
2019-02-26T10:54:08.243Z,51.21
2019-02-26T10:55:03.668Z,51.34
2019-02-26T10:56:03.657Z,51.72
2019-02-26T10:57:07.314Z,51.72
2019-02-26T10:58:08.038Z,50.50
2019-02-26T10:59:06.854Z,49.99
2019-02-26T11:00:06.370Z,48.57
2019-02-26T11:01:05.102Z,49.69
2019-02-26T11:02:03.608Z,48.75
2019-02-26T11:03:03.634Z,49.05
2019-02-26T11:04:04.663Z,48.24
2019-02-26T11:05:03.571Z,48.24
2019-02-26T11:06:04.835Z,47.91
2019-02-26T11:07:04.742Z,47.10
2019-02-26T11:08:08.488Z,48.11
2019-02-26T11:09:03.513Z,47.69
2019-02-26T11:10:03.502Z,46.57
2019-02-26T11:11:04.814Z,46.09
2019-02-26T11:13:14.839Z,45.36
2019-02-26T11:14:16.590Z,45.86
2019-02-26T11:15:13.659Z,45.05
2019-02-26T11:16:17.073Z,44.82
2019-02-26T11:17:13.639Z,45.01
2019-02-26T11:18:15.120Z,44.70
2019-02-26T11:19:13.625Z,43.77
2019-02-26T11:20:13.625Z,41.77
2019-02-26T11:21:13.733Z,42.69
2019-02-26T11:22:17.737Z,44.32
2019-02-26T11:23:14.291Z,44.12
2019-02-26T11:24:13.578Z,45.43
2019-02-26T11:25:15.782Z,44.73
2019-02-26T11:26:15.410Z,43.98
2019-02-26T11:27:13.552Z,43.37
2019-02-26T11:28:13.542Z,43.98
2019-02-26T11:29:13.520Z,44.07
2019-02-26T11:30:13.502Z,44.38
2019-02-26T11:31:14.053Z,43.75
2019-02-26T11:32:15.542Z,42.84
2019-02-26T11:33:15.448Z,43.35
2019-02-26T11:34:14.509Z,43.24
2019-02-26T11:35:14.555Z,43.65
2019-02-26T11:36:15.747Z,43.85
2019-02-26T11:37:13.425Z,44.68
2019-02-26T11:38:14.943Z,43.44
2019-02-26T11:39:13.411Z,42.41
2019-02-26T11:40:13.388Z,42.31
2019-02-26T11:41:13.386Z,40.80
2019-02-26T11:42:13.374Z,42.13
2019-02-26T11:43:14.964Z,41.74
2019-02-26T11:44:16.486Z,41.66
2019-02-26T11:45:14.350Z,42.07
2019-02-26T11:46:13.330Z,41.54
2019-02-26T11:47:14.396Z,40.53
2019-02-26T11:48:13.325Z,40.73
2019-02-26T11:49:14.838Z,41.02
2019-02-26T11:50:13.277Z,39.07
2019-02-26T11:51:16.824Z,38.68
2019-02-26T11:52:13.259Z,39.17
2019-02-26T11:53:13.269Z,39.37
2019-02-26T11:54:15.039Z,40.00
2019-02-26T11:55:13.221Z,38.99
2019-02-26T11:56:15.323Z,39.68
2019-02-26T11:57:15.190Z,38.77
2019-02-26T11:58:15.968Z,38.67
2019-02-26T11:59:14.861Z,38.46
2019-02-26T12:00:15.083Z,37.25
2019-02-26T12:01:13.159Z,38.37
2019-02-26T12:02:13.138Z,36.34
2019-02-26T12:03:13.148Z,35.92
2019-02-26T12:04:14.276Z,36.65
2019-02-26T12:05:13.180Z,36.22
2019-02-26T12:06:13.096Z,36.43
2019-02-26T12:07:13.091Z,36.81
2019-02-26T12:08:16.318Z,36.30
2019-02-26T12:09:14.247Z,36.32
2019-02-26T12:10:14.720Z,35.90
2019-02-26T12:11:17.557Z,35.70
2019-02-26T12:12:13.156Z,35.60
2019-02-26T12:13:14.671Z,35.19
2019-02-26T12:14:13.686Z,35.11
2019-02-26T12:15:15.176Z,34.80
2019-02-26T12:16:12.990Z,34.91
2019-02-26T12:17:12.988Z,35.41
2019-02-26T12:18:14.961Z,35.92
2019-02-26T12:19:12.984Z,34.30
2019-02-26T12:20:14.786Z,34.60
2019-02-26T12:21:12.994Z,35.51
2019-02-26T12:22:12.939Z,34.80
2019-02-26T12:23:15.601Z,35.72
2019-02-26T12:24:12.906Z,36.22
2019-02-26T12:25:12.893Z,36.32
2019-02-26T12:26:12.872Z,36.12
2019-02-26T12:27:17.625Z,35.30
2019-02-26T12:28:13.719Z,34.99
2019-02-26T12:29:12.881Z,35.09
2019-02-26T12:30:13.775Z,35.19
2019-02-26T12:31:13.020Z,35.17
2019-02-26T12:32:12.814Z,33.58
2019-02-26T12:33:14.682Z,34.38
2019-02-26T12:34:14.616Z,33.37
2019-02-26T12:35:17.245Z,33.27
2019-02-26T12:36:12.774Z,34.37
2019-02-26T12:37:12.752Z,34.27
2019-02-26T12:38:20.635Z,34.77
2019-02-26T12:39:12.741Z,34.15
2019-02-26T12:40:14.019Z,34.55
2019-02-26T12:41:15.991Z,34.13
2019-02-26T12:42:15.346Z,33.53
2019-02-26T12:43:16.290Z,32.32
2019-02-26T12:44:13.432Z,32.92
2019-02-26T12:45:13.598Z,32.11
2019-02-26T12:46:12.667Z,32.21
2019-02-26T12:47:14.688Z,31.59
2019-02-26T12:48:16.035Z,31.41
2019-02-26T12:49:15.004Z,31.71
2019-02-26T12:50:12.610Z,31.93
2019-02-26T12:51:13.459Z,33.04
2019-02-26T12:52:14.591Z,31.22
2019-02-26T12:53:15.413Z,32.32
2019-02-26T12:54:13.782Z,32.11
2019-02-26T12:55:12.548Z,31.61
2019-02-26T12:56:12.545Z,31.81
2019-02-26T12:57:12.541Z,30.60
2019-02-26T12:58:15.159Z,29.99
2019-02-26T12:59:12.540Z,30.09